Time;durP1;ratioP1;P1;durP2;ratioP2;P2;SDS_P1;SDS_P2;PMS_P1;PMS_P2;Temp;Humidity;BMP_temperature;BMP_pressure;BME280_temperature;BME280_humidity;BME280_pressure;Samples;Min_cycle;Max_cycle;Signal;HPM_P1;HPM_P2
2023/12/25 05:41:54;;;;;;;;;;;;;;;-1.69;100.00;98751.66;107925;1257;22665;-54
2023/12/25 05:44:21;;;;;;;;;;;;;;;-1.70;100.00;98757.79;109991;1274;22854;-54
2023/12/25 05:46:48;;;;;;;;;;;;;;;-1.72;100.00;98754.66;109957;1266;23060;-48
2023/12/25 05:49:14;;;;;;;;;;;;;;;-1.75;100.00;98749.81;108315;1269;24273;-54
2023/12/25 05:51:41;;;;;;;;;;;;;;;-1.79;100.00;98739.13;107055;1268;25471;-56
2023/12/25 05:54:08;;;;;;;;;;;;;;;-1.81;100.00;98734.77;107522;1270;23339;-46
2023/12/25 05:56:34;;;;;;;;;;;;;;;-1.84;100.00;98731.63;107363;1271;24258;-49
2023/12/25 05:59:01;;;;;;;;;;;;;;;-1.87;100.00;98729.86;106743;1273;25943;-52
2023/12/25 06:01:28;;;;;;;;;;;;;;;-1.89;100.00;98726.21;107252;1273;22527;-54
2023/12/25 06:03:55;;;;;;;;;;;;;;;-1.92;100.00;98725.80;107962;1274;22606;-53
2023/12/25 06:06:21;;;;;;;;;;;;;;;-1.92;100.00;98712.97;107157;1270;23166;-48
2023/12/25 06:08:48;;;;;;;;;;;;;;;-1.94;100.00;98704.73;107456;1275;25433;-48
2023/12/25 06:11:15;;;;;;;;;;;;;;;-1.95;100.00;98696.85;108102;1281;24288;-46
2023/12/25 06:13:41;;;;;;;;;;;;;;;-1.95;100.00;98692.41;107457;1270;22536;-47
2023/12/25 06:16:08;;;;;;;;;;;;;;;-1.92;100.00;98688.88;107943;1268;24200;-53
2023/12/25 06:18:35;;;;;;;;;;;;;;;-1.90;100.00;98686.39;107463;1265;22537;-53
2023/12/25 06:21:02;;;;;;;;;;;;;;;-1.86;100.00;98680.30;109227;1273;23372;-48
2023/12/25 06:23:29;;;;;;;;;;;;;;;-1.82;100.00;98676.46;108552;1271;24203;-48
2023/12/25 06:25:56;;;;;;;;;;;;;;;-1.79;100.00;98675.70;107984;1280;22528;-53
2023/12/25 06:28:22;;;;;;;;;;;;;;;-1.73;100.00;98679.07;109250;1280;22551;-48
2023/12/25 06:30:51;;;;;;;;;;;;;;;-1.67;100.00;98668.96;107544;1269;24247;-54
2023/12/25 06:33:18;;;;;;;;;;;;;;;-1.61;100.00;98656.77;107152;1265;22533;-53
2023/12/25 06:35:45;;;;;;;;;;;;;;;-1.55;100.00;98651.10;109476;1269;22547;-51
2023/12/25 06:38:12;;;;;;;;;;;;;;;-1.48;100.00;98650.23;110045;1268;23527;-52
2023/12/25 06:40:38;;;;;;;;;;;;;;;-1.40;100.00;98667.67;109393;1273;22469;-52
2023/12/25 06:43:06;;;;;;;;;;;;;;;-1.34;100.00;98662.67;109855;1280;22596;-48
2023/12/25 06:45:32;;;;;;;;;;;;;;;-1.29;100.00;98663.47;107658;1265;22620;-53
2023/12/25 06:47:59;;;;;;;;;;;;;;;-1.26;100.00;98666.95;107861;1280;23288;-53
2023/12/25 06:50:26;;;;;;;;;;;;;;;-1.24;100.00;98674.34;109315;1268;24189;-54
2023/12/25 06:52:53;;;;;;;;;;;;;;;-1.23;100.00;98670.60;109716;1280;22498;-52
2023/12/25 06:55:19;;;;;;;;;;;;;;;-1.21;100.00;98682.45;110021;1277;23106;-48
2023/12/25 06:57:46;;;;;;;;;;;;;;;-1.17;100.00;98673.48;109986;1267;22428;-48
2023/12/25 07:00:13;;;;;;;;;;;;;;;-1.13;100.00;98670.30;109703;1268;22497;-47
2023/12/25 07:02:40;;;;;;;;;;;;;;;-1.08;100.00;98665.96;109880;1270;22461;-48
2023/12/25 07:05:07;;;;;;;;;;;;;;;-1.02;100.00;98653.41;109305;1268;22571;-49
2023/12/25 07:07:33;;;;;;;;;;;;;;;-0.98;100.00;98645.78;109900;1274;22485;-49
2023/12/25 07:10:00;;;;;;;;;;;;;;;-0.94;100.00;98643.30;109965;1270;23191;-54
2023/12/25 07:12:26;;;;;;;;;;;;;;;-0.88;100.00;98644.59;109924;1275;22522;-48
2023/12/25 07:14:53;;;;;;;;;;;;;;;-0.83;100.00;98642.48;109897;1276;22550;-54
2023/12/25 07:17:20;;;;;;;;;;;;;;;-0.79;100.00;98643.25;109912;1269;22442;-54
2023/12/25 07:19:47;;;;;;;;;;;;;;;-0.74;100.00;98638.70;109987;1273;22448;-54
2023/12/25 07:22:14;;;;;;;;;;;;;;;-0.71;100.00;98642.02;109237;1272;22503;-48
2023/12/25 07:24:40;;;;;;;;;;;;;;;-0.69;100.00;98636.75;109997;1274;23195;-47
2023/12/25 07:27:07;;;;;;;;;;;;;;;-0.67;100.00;98632.34;110000;1269;22463;-54
2023/12/25 07:29:34;;;;;;;;;;;;;;;-0.65;100.00;98634.77;109978;1273;22418;-55
2023/12/25 07:32:01;;;;;;;;;;;;;;;-0.62;100.00;98631.23;109948;1266;23394;-48
2023/12/25 07:34:28;;;;;;;;;;;;;;;-0.57;100.00;98636.45;109953;1269;23429;-48
2023/12/25 07:36:55;;;;;;;;;;;;;;;-0.53;100.00;98639.44;110000;1272;22505;-55
2023/12/25 07:39:21;;;;;;;;;;;;;;;-0.48;100.00;98647.05;109487;1270;22966;-48
2023/12/25 07:41:48;;;;;;;;;;;;;;;-0.43;100.00;98639.44;109959;1270;23135;-55
2023/12/25 07:44:18;;;;;;;;;;;;;;;-0.39;100.00;98629.23;109932;1273;22441;-53
2023/12/25 07:46:44;;;;;;;;;;;;;;;-0.33;100.00;98623.51;109678;1275;22525;-48
2023/12/25 07:49:17;;;;;;;;;;;;;;;-0.28;100.00;98621.37;109777;1279;22511;-53
2023/12/25 07:51:48;;;;;;;;;;;;;;;-0.23;100.00;98622.64;109904;1270;22552;-54
2023/12/25 07:54:14;;;;;;;;;;;;;;;-0.18;100.00;98622.38;109941;1271;22622;-53
2023/12/25 07:56:41;;;;;;;;;;;;;;;-0.15;100.00;98620.55;109895;1273;23215;-54
2023/12/25 07:59:08;;;;;;;;;;;;;;;-0.11;100.00;98611.02;109928;1273;22878;-48
2023/12/25 08:01:34;;;;;;;;;;;;;;;-0.08;100.00;98606.60;109899;1265;23031;-54
2023/12/25 08:04:02;;;;;;;;;;;;;;;-0.05;100.00;98609.23;109838;1270;24267;-54
2023/12/25 08:06:29;;;;;;;;;;;;;;;-0.02;100.00;98606.86;109889;1270;22542;-48
2023/12/25 08:08:56;;;;;;;;;;;;;;;-0.01;100.00;98600.52;109907;1274;22870;-48
2023/12/25 08:11:23;;;;;;;;;;;;;;;0.00;100.00;98598.16;109594;1265;22504;-55
2023/12/25 08:13:52;;;;;;;;;;;;;;;0.02;100.00;98590.64;109919;1265;22600;-49
2023/12/25 08:16:19;;;;;;;;;;;;;;;0.03;100.00;98586.88;108687;1279;22540;-55
2023/12/25 08:18:46;;;;;;;;;;;;;;;0.04;100.00;98580.89;109811;1269;23234;-48
2023/12/25 08:21:13;;;;;;;;;;;;;;;0.05;100.00;98585.70;109967;1265;22451;-53
2023/12/25 08:23:42;;;;;;;;;;;;;;;0.07;100.00;98576.83;109967;1270;22451;-54
2023/12/25 08:26:09;;;;;;;;;;;;;;;0.09;100.00;98583.70;109936;1265;23685;-48
2023/12/25 08:28:37;;;;;;;;;;;;;;;0.10;100.00;98572.06;109897;1270;22460;-48
2023/12/25 08:31:05;;;;;;;;;;;;;;;0.14;100.00;98568.02;109941;1278;22456;-48
2023/12/25 08:33:33;;;;;;;;;;;;;;;0.17;100.00;98557.77;109957;1269;23094;-47
2023/12/25 08:36:00;;;;;;;;;;;;;;;0.22;100.00;98543.77;109265;1273;22559;-55
2023/12/25 08:38:27;;;;;;;;;;;;;;;0.27;100.00;98532.69;109668;1272;22591;-54
2023/12/25 08:40:54;;;;;;;;;;;;;;;0.30;100.00;98530.86;109787;1267;22923;-47
2023/12/25 08:43:20;;;;;;;;;;;;;;;0.34;100.00;98524.36;109966;1265;22515;-55
2023/12/25 08:45:47;;;;;;;;;;;;;;;0.37;100.00;98519.27;109938;1273;22429;-49
2023/12/25 08:48:13;;;;;;;;;;;;;;;0.39;100.00;98510.54;109991;1277;22433;-57
2023/12/25 08:50:40;;;;;;;;;;;;;;;0.42;100.00;98500.45;109927;1273;22954;-56
2023/12/25 08:53:08;;;;;;;;;;;;;;;0.44;100.00;98497.23;109969;1268;22510;-56
2023/12/25 08:55:35;;;;;;;;;;;;;;;0.47;100.00;98488.70;109887;1273;22479;-56
2023/12/25 08:58:02;;;;;;;;;;;;;;;0.54;100.00;98484.48;109946;1269;23892;-49
2023/12/25 09:00:29;;;;;;;;;;;;;;;0.63;100.00;98481.30;109821;1275;22467;-49
2023/12/25 09:02:56;;;;;;;;;;;;;;;0.68;100.00;98478.11;109900;1269;22473;-49
2023/12/25 09:05:23;;;;;;;;;;;;;;;0.73;100.00;98467.16;109922;1273;23622;-49
2023/12/25 09:07:50;;;;;;;;;;;;;;;0.75;100.00;98467.03;109996;1276;22501;-55
2023/12/25 09:10:16;;;;;;;;;;;;;;;0.78;100.00;98460.18;109863;1272;23288;-47
2023/12/25 09:12:43;;;;;;;;;;;;;;;0.81;100.00;98460.05;109995;1265;22431;-55
2023/12/25 09:15:10;;;;;;;;;;;;;;;0.83;100.00;98453.36;109971;1277;22452;-48
2023/12/25 09:17:37;;;;;;;;;;;;;;;0.87;100.00;98460.44;108608;1279;22519;-55
2023/12/25 09:20:04;;;;;;;;;;;;;;;0.89;100.00;98457.03;108942;1271;22506;-49
2023/12/25 09:22:32;;;;;;;;;;;;;;;0.93;100.00;98453.29;109988;1272;22452;-49
2023/12/25 09:24:59;;;;;;;;;;;;;;;0.96;100.00;98451.08;109937;1269;22537;-49
2023/12/25 09:27:27;;;;;;;;;;;;;;;1.00;100.00;98444.60;109932;1274;23261;-55
2023/12/25 09:29:54;;;;;;;;;;;;;;;1.05;100.00;98441.04;109987;1278;22506;-55
2023/12/25 09:32:21;;;;;;;;;;;;;;;1.11;100.00;98438.50;110014;1273;23317;-56
2023/12/25 09:34:48;;;;;;;;;;;;;;;1.16;100.00;98435.63;109764;1274;22513;-56
2023/12/25 09:37:25;;;;;;;;;;;;;;;1.21;100.00;98439.62;109969;1273;22596;-54
2023/12/25 09:39:52;;;;;;;;;;;;;;;1.25;100.00;98438.61;109940;1273;23318;-49
2023/12/25 09:42:18;;;;;;;;;;;;;;;1.31;100.00;98430.23;108821;1270;22513;-50
2023/12/25 09:44:45;;;;;;;;;;;;;;;1.37;100.00;98427.02;108972;1271;22531;-55
2023/12/25 09:47:12;;;;;;;;;;;;;;;1.41;100.00;98426.88;109562;1272;22531;-56
2023/12/25 09:49:39;;;;;;;;;;;;;;;1.47;100.00;98421.77;109927;1269;22521;-57
2023/12/25 09:52:06;;;;;;;;;;;;;;;1.53;100.00;98414.23;108290;1273;22566;-54
2023/12/25 09:54:33;;;;;;;;;;;;;;;1.57;100.00;98428.19;108419;1266;23174;-55
2023/12/25 09:57:00;;;;;;;;;;;;;;;1.63;100.00;98419.46;108983;1271;22517;-56
2023/12/25 09:59:27;;;;;;;;;;;;;;;1.68;100.00;98410.55;109961;1265;22545;-50
2023/12/25 10:01:55;;;;;;;;;;;;;;;1.72;100.00;98408.33;109097;1269;22633;-48
2023/12/25 10:04:21;;;;;;;;;;;;;;;1.74;100.00;98393.55;109966;1270;22536;-55
2023/12/25 10:06:48;;;;;;;;;;;;;;;1.76;100.00;98394.10;109875;1268;22442;-50
2023/12/25 10:09:16;;;;;;;;;;;;;;;1.78;100.00;98395.46;109928;1280;22485;-49
2023/12/25 10:11:42;;;;;;;;;;;;;;;1.81;100.00;98388.95;110018;1262;22894;-49
2023/12/25 10:14:09;;;;;;;;;;;;;;;1.84;100.00;98384.31;109990;1265;22492;-49
2023/12/25 10:16:36;;;;;;;;;;;;;;;1.88;100.00;98388.13;109910;1271;22431;-49
2023/12/25 10:19:04;;;;;;;;;;;;;;;1.91;100.00;98380.74;108810;1275;22494;-56
2023/12/25 10:21:40;;;;;;;;;;;;;;;1.97;100.00;98381.11;110011;1269;22442;-55
2023/12/25 10:24:14;;;;;;;;;;;;;;;2.04;100.00;98373.05;109956;1278;22434;-49
2023/12/25 10:26:42;;;;;;;;;;;;;;;2.13;100.00;98374.12;108559;1280;22513;-55
2023/12/25 10:29:09;;;;;;;;;;;;;;;2.23;100.00;98362.63;109110;1280;22530;-51
2023/12/25 10:31:40;;;;;;;;;;;;;;;2.32;100.00;98364.19;109878;1270;22482;-48
2023/12/25 10:34:06;;;;;;;;;;;;;;;2.42;100.00;98365.93;110000;1270;22404;-47
2023/12/25 10:36:33;;;;;;;;;;;;;;;2.50;100.00;98374.20;108839;1270;22569;-55
2023/12/25 10:39:00;;;;;;;;;;;;;;;2.55;100.00;98373.70;107720;1271;23987;-54
2023/12/25 10:41:31;;;;;;;;;;;;;;;2.60;100.00;98378.69;107814;1265;22575;-55
2023/12/25 10:43:59;;;;;;;;;;;;;;;2.65;100.00;98373.38;107140;1280;126124;-55
2023/12/25 10:46:26;;;;;;;;;;;;;;;2.70;100.00;98371.65;106894;1281;25253;-55
2023/12/25 10:48:54;;;;;;;;;;;;;;;2.76;100.00;98373.03;106901;1271;25358;-49
2023/12/25 10:51:21;;;;;;;;;;;;;;;2.81;100.00;98378.54;107056;1271;22551;-54
2023/12/25 10:53:48;;;;;;;;;;;;;;;2.87;100.00;98381.13;108704;1275;22521;-47
2023/12/25 10:56:15;;;;;;;;;;;;;;;2.93;100.00;98379.40;110035;1265;22443;-49
2023/12/25 10:58:42;;;;;;;;;;;;;;;3.00;100.00;98380.27;109896;1268;22427;-48
2023/12/25 11:01:08;;;;;;;;;;;;;;;3.07;100.00;98386.12;108471;1280;23224;-54
2023/12/25 11:03:35;;;;;;;;;;;;;;;3.12;100.00;98381.30;109012;1266;25339;-55
2023/12/25 11:06:04;;;;;;;;;;;;;;;3.17;100.00;98374.23;107030;1264;23354;-54
2023/12/25 11:08:31;;;;;;;;;;;;;;;3.22;100.00;98382.67;109002;1275;22622;-54
2023/12/25 11:11:05;;;;;;;;;;;;;;;3.24;100.00;98376.11;107580;1280;22575;-50
2023/12/25 11:13:32;;;;;;;;;;;;;;;3.26;100.00;98376.30;109532;1277;22475;-48
2023/12/25 11:15:58;;;;;;;;;;;;;;;3.27;100.00;98368.54;107728;1275;23340;-54
2023/12/25 11:18:25;;;;;;;;;;;;;;;3.26;100.00;98376.64;108333;1269;23331;-53
2023/12/25 11:21:03;;;;;;;;;;;;;;;3.27;100.00;98387.32;108603;1277;22557;-55
2023/12/25 11:23:30;;;;;;;;;;;;;;;3.28;100.00;98379.04;109958;1279;22488;-55
2023/12/25 11:25:58;;;;;;;;;;;;;;;3.29;100.00;98390.92;109551;1269;22503;-49
2023/12/25 11:28:25;;;;;;;;;;;;;;;3.29;100.00;98386.80;108245;1266;26530;-49
2023/12/25 11:30:52;;;;;;;;;;;;;;;3.31;100.00;98393.17;109234;1268;22461;-49
2023/12/25 11:33:19;;;;;;;;;;;;;;;3.35;100.00;98391.95;109982;1272;22457;-55
2023/12/25 11:35:46;;;;;;;;;;;;;;;3.37;100.00;98397.13;109707;1272;22563;-55
2023/12/25 11:38:19;;;;;;;;;;;;;;;3.38;100.00;98400.05;109236;1275;22557;-56
2023/12/25 11:40:45;;;;;;;;;;;;;;;3.39;100.00;98398.51;108967;1267;22551;-54
2023/12/25 11:43:16;;;;;;;;;;;;;;;3.39;100.00;98406.09;109946;1270;22475;-47
2023/12/25 11:45:43;;;;;;;;;;;;;;;3.38;100.00;98405.40;109874;1271;23415;-54
2023/12/25 11:48:11;;;;;;;;;;;;;;;3.40;100.00;98402.45;109898;1267;22463;-48
2023/12/25 11:50:41;;;;;;;;;;;;;;;3.42;100.00;98410.04;109866;1271;23180;-54
2023/12/25 11:53:08;;;;;;;;;;;;;;;3.45;100.00;98403.83;109858;1275;22459;-47
2023/12/25 11:55:35;;;;;;;;;;;;;;;3.51;100.00;98392.45;109862;1275;22452;-52
2023/12/25 11:58:02;;;;;;;;;;;;;;;3.58;100.00;98388.12;109773;1272;22975;-54
2023/12/25 12:00:32;;;;;;;;;;;;;;;3.64;100.00;98382.77;109928;1272;22414;-48
2023/12/25 12:02:59;;;;;;;;;;;;;;;3.67;100.00;98382.77;109889;1279;22466;-47
2023/12/25 12:05:30;;;;;;;;;;;;;;;3.69;100.00;98378.61;109950;1269;23194;-53
2023/12/25 12:07:57;;;;;;;;;;;;;;;3.73;100.00;98377.22;109959;1273;22644;-53
2023/12/25 12:10:24;;;;;;;;;;;;;;;3.78;100.00;98368.24;109691;1265;23735;-55
2023/12/25 12:12:50;;;;;;;;;;;;;;;3.82;100.00;98368.23;109484;1279;22551;-54
2023/12/25 12:15:17;;;;;;;;;;;;;;;3.85;100.00;98370.45;109017;1271;22636;-54
2023/12/25 12:17:44;;;;;;;;;;;;;;;3.89;100.00;98365.95;109952;1268;23252;-48
2023/12/25 12:20:11;;;;;;;;;;;;;;;3.95;100.00;98365.92;109995;1275;22474;-48
2023/12/25 12:22:38;;;;;;;;;;;;;;;4.06;100.00;98360.19;109977;1279;22441;-48
2023/12/25 12:25:19;;;;;;;;;;;;;;;4.17;100.00;98367.89;109990;1274;22624;-49
2023/12/25 12:27:46;;;;;;;;;;;;;;;4.28;100.00;98358.52;109646;1275;22466;-54
2023/12/25 12:30:13;;;;;;;;;;;;;;;4.35;100.00;98350.55;109998;1268;22607;-47
2023/12/25 12:32:41;;;;;;;;;;;;;;;4.38;100.00;98351.73;109731;1269;24266;-48
2023/12/25 12:35:08;;;;;;;;;;;;;;;4.44;100.00;98357.73;107627;1279;22691;-48
2023/12/25 12:37:35;;;;;;;;;;;;;;;4.69;100.00;98361.02;108839;1279;24310;-55
2023/12/25 12:40:02;;;;;;;;;;;;;;;5.11;100.00;98360.16;108823;1280;23637;-54
2023/12/25 12:42:37;;;;;;;;;;;;;;;5.54;100.00;98360.61;108053;1280;25488;-48
2023/12/25 12:45:04;;;;;;;;;;;;;;;5.81;100.00;98358.92;108123;1274;22515;-49
2023/12/25 12:47:34;;;;;;;;;;;;;;;5.86;100.00;98363.39;107652;1269;22644;-50
2023/12/25 12:50:01;;;;;;;;;;;;;;;5.85;100.00;98379.14;107118;1269;25514;-54
2023/12/25 12:52:28;;;;;;;;;;;;;;;5.75;100.00;98380.98;107575;1272;22508;-48
2023/12/25 12:54:55;;;;;;;;;;;;;;;5.59;100.00;98386.34;107300;1272;22549;-53
2023/12/25 12:57:23;;;;;;;;;;;;;;;5.41;100.00;98383.75;110039;1262;22441;-55
2023/12/25 12:59:50;;;;;;;;;;;;;;;5.28;100.00;98382.83;109954;1273;23376;-49
2023/12/25 13:02:17;;;;;;;;;;;;;;;5.20;100.00;98383.25;107460;1280;22617;-47
2023/12/25 13:04:47;;;;;;;;;;;;;;;5.21;100.00;98387.57;108598;1281;22542;-51
2023/12/25 13:07:15;;;;;;;;;;;;;;;5.27;100.00;98393.56;107805;1270;22620;-47
2023/12/25 13:09:42;;;;;;;;;;;;;;;5.33;100.00;98399.04;107734;1272;22599;-48
2023/12/25 13:12:08;;;;;;;;;;;;;;;5.36;100.00;98395.73;106705;1262;25396;-48
2023/12/25 13:14:35;;;;;;;;;;;;;;;5.38;100.00;98399.67;109958;1275;22506;-49
2023/12/25 13:17:03;;;;;;;;;;;;;;;5.38;100.00;98401.57;109100;1280;22990;-48
2023/12/25 13:19:29;;;;;;;;;;;;;;;5.36;100.00;98400.91;108638;1278;22554;-49
2023/12/25 13:21:56;;;;;;;;;;;;;;;5.31;100.00;98396.64;107931;1268;25313;-49
